createdAt,value
2022-11-15T06:32:40.194Z,8.18
2022-11-15T07:09:57.643Z,14.48
2022-11-15T07:13:19.699Z,12.88
2022-11-15T07:16:41.682Z,11.50
2022-11-15T07:20:03.229Z,13.35
2022-11-15T07:23:24.473Z,12.57
2022-11-15T07:26:45.494Z,9.67
2022-11-15T07:30:07.093Z,9.98
2022-11-15T07:33:28.485Z,8.65
2022-11-15T07:36:49.805Z,9.60
2022-11-15T07:40:12.439Z,8.73
2022-11-15T07:43:34.944Z,8.27
2022-11-15T07:46:56.094Z,9.02
2022-11-15T07:50:17.943Z,8.10
2022-11-15T07:54:07.783Z,9.48
2022-11-15T07:57:30.162Z,8.63
2022-11-15T08:00:51.248Z,8.77
2022-11-15T08:04:12.759Z,10.02
2022-11-15T08:07:34.098Z,11.75
2022-11-15T08:10:55.723Z,10.63
2022-11-15T08:14:16.799Z,11.77
2022-11-15T08:17:37.897Z,10.85
2022-11-15T08:21:03.178Z,11.95
2022-11-15T08:24:24.176Z,13.07
2022-11-15T08:27:46.036Z,15.40
2022-11-15T08:31:08.187Z,15.15
2022-11-15T08:34:30.107Z,11.57
2022-11-15T08:37:57.197Z,17.17
2022-11-15T08:41:33.078Z,16.55
2022-11-15T08:44:54.425Z,13.02
2022-11-15T08:48:15.310Z,13.70
2022-11-15T08:51:36.590Z,12.55
2022-11-15T08:54:59.355Z,13.38
2022-11-15T08:58:20.975Z,12.53
2022-11-15T09:01:42.350Z,14.57
2022-11-15T09:05:03.919Z,13.95
2022-11-15T09:08:46.553Z,14.47
2022-11-15T09:12:14.935Z,12.55
2022-11-15T09:15:36.228Z,12.43
2022-11-15T09:18:57.366Z,12.60
2022-11-15T09:22:18.246Z,12.43
2022-11-15T09:25:39.432Z,12.95
2022-11-15T09:29:02.374Z,15.75
2022-11-15T09:32:24.289Z,13.00
2022-11-15T09:35:45.455Z,13.30
2022-11-15T09:39:06.538Z,12.90
2022-11-15T09:42:58.588Z,13.03
2022-11-15T09:46:37.110Z,14.40
2022-11-15T09:50:21.365Z,13.85
2022-11-15T09:54:13.497Z,15.60
2022-11-15T09:57:19.638Z,15.93
2022-11-15T10:00:48.259Z,20.33
2022-11-15T10:03:52.502Z,19.10
2022-11-15T10:07:03.825Z,21.43
2022-11-15T10:10:40.180Z,18.20
2022-11-15T10:13:47.305Z,16.13
2022-11-15T10:17:19.152Z,19.20
2022-11-15T10:20:24.115Z,22.92
2022-11-15T10:23:28.720Z,15.98
2022-11-15T10:26:31.199Z,14.93
2022-11-15T10:29:34.477Z,14.57
2022-11-15T10:32:37.443Z,15.10
2022-11-15T10:35:40.159Z,13.23
2022-11-15T10:38:51.843Z,13.87
2022-11-15T10:41:55.419Z,13.60
2022-11-15T10:44:57.876Z,14.20
2022-11-15T10:48:15.534Z,14.83
2022-11-15T10:51:29.219Z,15.50
2022-11-15T10:54:37.166Z,14.80
2022-11-15T10:57:41.375Z,14.25
2022-11-15T11:00:47.937Z,15.15
2022-11-15T11:04:04.616Z,18.35
2022-11-15T11:07:21.965Z,20.70
2022-11-15T11:10:50.368Z,20.20
2022-11-15T11:13:50.163Z,18.25
2022-11-15T11:16:58.914Z,18.52
2022-11-15T11:20:19.942Z,16.27
2022-11-15T11:23:50.498Z,15.73
2022-11-15T11:27:18.772Z,16.65
2022-11-15T11:30:50.574Z,15.65
2022-11-15T11:34:08.068Z,18.48
2022-11-15T11:37:31.478Z,17.80
2022-11-15T11:40:46.133Z,15.38
2022-11-15T11:43:52.102Z,15.20
2022-11-15T11:47:01.862Z,17.63
2022-11-15T11:50:27.952Z,18.35
2022-11-15T11:53:49.049Z,18.47
2022-11-15T11:56:53.072Z,19.38
2022-11-15T12:00:03.150Z,17.58
2022-11-15T12:03:20.825Z,18.40
2022-11-15T12:06:48.437Z,17.65
2022-11-15T12:10:02.866Z,17.38
2022-11-15T12:13:12.074Z,18.90
2022-11-15T12:16:24.926Z,16.10
2022-11-15T12:19:29.768Z,17.05
2022-11-15T12:22:44.555Z,17.15
2022-11-15T12:25:52.771Z,16.73
2022-11-15T12:29:07.463Z,15.65
2022-11-15T12:32:37.007Z,18.05
2022-11-15T12:35:42.956Z,17.45
2022-11-15T12:39:03.937Z,17.40
2022-11-15T12:42:06.746Z,20.25
2022-11-15T12:45:45.973Z,22.52
2022-11-15T12:48:54.536Z,19.43
2022-11-15T12:52:00.010Z,16.77
2022-11-15T12:55:23.998Z,18.00
2022-11-15T12:58:43.635Z,17.43
2022-11-15T13:01:46.171Z,18.30
2022-11-15T13:04:50.265Z,16.50
2022-11-15T13:07:59.826Z,18.17
2022-11-15T13:11:41.297Z,18.10
2022-11-15T13:14:52.527Z,18.88
2022-11-15T13:17:57.749Z,17.58
2022-11-15T13:21:02.933Z,17.87
2022-11-15T13:24:11.173Z,18.25
2022-11-15T13:27:20.351Z,18.88
2022-11-15T13:30:26.231Z,21.10
2022-11-15T13:33:36.440Z,20.15
2022-11-15T13:36:39.110Z,18.48
2022-11-15T13:39:41.881Z,20.30
2022-11-15T13:42:46.010Z,19.85
2022-11-15T13:46:13.182Z,20.42
2022-11-15T13:49:15.567Z,21.08
2022-11-15T13:52:18.675Z,21.23
2022-11-15T13:55:23.781Z,19.23
2022-11-15T13:58:26.865Z,20.33
2022-11-15T14:01:32.692Z,18.53
2022-11-15T14:04:35.608Z,17.10
2022-11-15T14:07:41.833Z,17.77
2022-11-15T14:10:47.709Z,17.33
2022-11-15T14:14:08.492Z,17.40
2022-11-15T14:17:21.864Z,17.02
2022-11-15T14:20:29.510Z,19.92
2022-11-15T14:23:32.230Z,21.87
2022-11-15T14:26:35.883Z,24.17
2022-11-15T14:29:39.190Z,23.17
2022-11-15T14:32:48.873Z,21.53
2022-11-15T14:35:53.312Z,20.52
2022-11-15T14:38:56.010Z,19.45
2022-11-15T14:41:58.789Z,20.15
2022-11-15T14:45:01.379Z,31.80
2022-11-15T14:48:04.466Z,29.35
2022-11-15T14:51:25.402Z,27.45
2022-11-15T14:54:28.035Z,31.37
2022-11-15T14:57:31.108Z,34.85
2022-11-15T15:00:35.465Z,40.38
2022-11-15T15:03:38.198Z,30.03
2022-11-15T15:06:40.854Z,33.13
2022-11-15T15:09:44.112Z,23.38
2022-11-15T15:12:47.047Z,20.40
2022-11-15T15:15:50.636Z,19.98
2022-11-15T15:18:53.725Z,21.17
2022-11-15T15:21:56.066Z,20.13
2022-11-15T15:24:58.635Z,20.53
2022-11-15T15:28:01.372Z,19.55
2022-11-15T15:31:05.204Z,19.10
2022-11-15T15:34:12.132Z,19.63
2022-11-15T15:37:27.434Z,19.42
2022-11-15T15:40:32.257Z,20.33
2022-11-15T15:43:35.226Z,20.20
2022-11-15T15:46:37.633Z,19.20
2022-11-15T15:49:40.839Z,19.83
2022-11-15T15:52:43.538Z,29.80
2022-11-15T15:55:46.055Z,25.93
2022-11-15T15:58:49.098Z,30.27
2022-11-15T16:01:51.634Z,45.70
2022-11-15T16:04:54.244Z,39.57
2022-11-15T16:07:56.758Z,26.40
2022-11-15T16:11:00.116Z,26.33
2022-11-15T16:14:02.778Z,24.85
2022-11-15T16:17:05.272Z,30.48
2022-11-15T16:20:08.223Z,25.95
2022-11-15T16:23:15.891Z,39.63
2022-11-15T16:26:22.942Z,71.93
2022-11-15T16:29:25.517Z,50.65
2022-11-15T16:32:28.266Z,38.67
2022-11-15T16:35:31.072Z,33.93
2022-11-15T16:38:33.844Z,28.92
2022-11-15T16:41:36.950Z,30.50
2022-11-15T16:44:39.401Z,31.25
2022-11-15T16:47:42.091Z,29.45
2022-11-15T16:50:46.918Z,30.63
2022-11-15T16:53:50.098Z,30.88
2022-11-15T16:56:53.822Z,33.50
2022-11-15T16:59:56.634Z,31.75
2022-11-15T17:02:59.694Z,29.83
2022-11-15T17:06:02.150Z,25.57
2022-11-15T17:09:04.854Z,31.33
2022-11-15T17:12:08.941Z,64.72
2022-11-15T17:15:13.200Z,33.10
2022-11-15T17:18:15.797Z,28.05
2022-11-15T17:21:22.006Z,30.80
2022-11-15T17:24:24.815Z,27.05
2022-11-15T17:27:27.367Z,24.43
2022-11-15T17:30:30.526Z,24.80
2022-11-15T17:33:33.213Z,28.23
2022-11-15T17:36:36.234Z,56.70
2022-11-15T17:39:38.798Z,39.67
2022-11-15T17:42:42.264Z,34.00
2022-11-15T17:45:45.247Z,47.85
2022-11-15T17:48:48.858Z,36.05
2022-11-15T17:51:52.974Z,37.03
2022-11-15T17:54:55.370Z,26.27
2022-11-15T17:57:58.222Z,27.17
2022-11-15T18:01:07.826Z,26.80
2022-11-15T18:04:10.876Z,23.65
2022-11-15T18:07:14.132Z,26.00
2022-11-15T18:10:17.705Z,25.73
2022-11-15T18:13:20.141Z,26.25
2022-11-15T18:16:27.727Z,27.90
2022-11-15T18:19:30.379Z,26.40
2022-11-15T18:22:33.341Z,26.55
2022-11-15T18:25:35.784Z,27.75
2022-11-15T18:28:40.866Z,26.87
2022-11-15T18:31:47.536Z,28.25
2022-11-15T18:34:50.476Z,30.58
2022-11-15T18:37:55.523Z,31.73
2022-11-15T18:41:09.858Z,28.35
2022-11-15T18:44:12.719Z,28.13
2022-11-15T18:47:15.327Z,28.10
2022-11-15T18:50:17.921Z,25.85
2022-11-15T18:53:20.237Z,52.30
2022-11-15T18:56:24.573Z,57.45
2022-11-15T18:59:27.842Z,35.80
2022-11-15T19:02:30.479Z,28.40
2022-11-15T19:05:35.288Z,28.50
2022-11-15T19:08:38.702Z,41.83
2022-11-15T19:11:41.815Z,42.60
2022-11-15T19:14:44.378Z,35.65
2022-11-15T19:17:46.841Z,37.42
2022-11-15T19:20:50.533Z,29.05
2022-11-15T19:23:54.247Z,24.40
2022-11-15T19:26:57.080Z,26.00
2022-11-15T19:29:59.712Z,24.50
2022-11-15T19:33:02.442Z,24.63
2022-11-15T19:36:17.044Z,28.58
2022-11-15T19:39:20.082Z,33.93
2022-11-15T19:42:22.672Z,26.95
2022-11-15T19:45:25.730Z,27.20
2022-11-15T19:48:29.898Z,32.38
2022-11-15T19:51:33.093Z,29.42
2022-11-15T19:54:36.326Z,33.53
2022-11-15T19:57:38.962Z,35.95
2022-11-15T20:00:42.396Z,32.97
2022-11-15T20:03:50.225Z,35.15
2022-11-15T20:06:52.790Z,37.10
2022-11-15T20:09:55.574Z,34.07
2022-11-15T20:12:58.426Z,32.03
2022-11-15T20:16:01.232Z,32.88
2022-11-15T20:19:03.834Z,29.88
2022-11-15T20:22:06.766Z,27.15
2022-11-15T20:25:10.059Z,29.38
2022-11-15T20:28:21.169Z,29.23
2022-11-15T20:31:23.520Z,26.97
2022-11-15T20:34:26.210Z,29.20
2022-11-15T20:37:28.878Z,28.20
2022-11-15T20:40:33.050Z,27.53
2022-11-15T20:43:35.820Z,26.73
2022-11-15T20:46:38.654Z,28.95
2022-11-15T20:49:41.396Z,28.38
2022-11-15T20:52:44.840Z,28.20
2022-11-15T20:55:49.704Z,29.33
2022-11-15T20:58:53.641Z,28.77
2022-11-15T21:01:56.018Z,29.00
2022-11-15T21:04:59.165Z,28.02
2022-11-15T21:08:01.776Z,30.73
2022-11-15T21:11:27.115Z,29.50
2022-11-15T21:14:30.031Z,32.65
2022-11-15T21:17:32.437Z,34.00
2022-11-15T21:20:35.200Z,35.45
2022-11-15T21:23:38.146Z,36.65
2022-11-15T21:26:40.813Z,34.20
2022-11-15T21:29:45.756Z,32.63
2022-11-15T21:32:48.501Z,35.23
2022-11-15T21:35:52.002Z,36.97
2022-11-15T21:38:54.499Z,38.00
2022-11-15T21:41:57.234Z,36.60
2022-11-15T21:44:59.736Z,34.92
2022-11-15T21:48:02.524Z,33.83
2022-11-15T21:51:08.488Z,32.47
2022-11-15T21:54:11.197Z,30.50
2022-11-15T21:57:13.533Z,28.60
2022-11-15T22:00:36.122Z,31.80
2022-11-15T22:03:38.636Z,30.47
2022-11-15T22:06:41.423Z,30.05
2022-11-15T22:09:44.070Z,29.98
2022-11-15T22:12:47.077Z,32.57
2022-11-15T22:15:51.368Z,31.30
2022-11-15T22:18:54.306Z,30.25
2022-11-15T22:21:56.939Z,31.17
2022-11-15T22:25:00.162Z,28.33
2022-11-15T22:28:02.750Z,28.85
2022-11-15T22:31:06.458Z,28.15
2022-11-15T22:34:09.385Z,28.90
2022-11-15T22:37:20.492Z,31.27
2022-11-15T22:40:23.902Z,30.52
2022-11-15T22:43:27.676Z,31.43
2022-11-15T22:46:30.343Z,30.25
2022-11-15T22:49:33.030Z,29.15
2022-11-15T22:52:35.782Z,30.17
2022-11-15T22:55:39.646Z,28.65
2022-11-15T22:58:42.086Z,31.10
2022-11-15T23:01:45.014Z,33.35
2022-11-15T23:04:47.429Z,28.67
2022-11-15T23:07:50.114Z,31.38
2022-11-15T23:11:12.277Z,28.60
2022-11-15T23:14:34.685Z,30.83
2022-11-15T23:17:57.112Z,29.85
2022-11-15T23:21:43.744Z,30.27
2022-11-15T23:25:06.868Z,32.28
2022-11-15T23:28:09.727Z,28.92
2022-11-15T23:31:30.458Z,32.03
2022-11-15T23:34:37.025Z,32.42
2022-11-15T23:37:39.582Z,30.50
2022-11-15T23:40:42.693Z,29.27
2022-11-15T23:43:45.760Z,30.50
2022-11-15T23:46:48.505Z,32.93
2022-11-15T23:49:51.178Z,32.80
2022-11-15T23:52:53.729Z,31.70
2022-11-15T23:56:07.830Z,31.33
2022-11-15T23:59:10.758Z,33.28
